sensor_id;sensor_type;location;lat;lon;timestamp;P1;durP1;ratioP1;P2;durP2;ratioP2
12756;SDS011;31601;48.042;12.240;2023-05-07T00:01:05;6.57;;;5.47;;
12756;SDS011;31601;48.042;12.240;2023-05-07T00:03:31;7.67;;;5.70;;
12756;SDS011;31601;48.042;12.240;2023-05-07T00:05:58;5.37;;;4.87;;
12756;SDS011;31601;48.042;12.240;2023-05-07T00:08:25;5.93;;;5.43;;
12756;SDS011;31601;48.042;12.240;2023-05-07T00:10:51;6.43;;;5.07;;
12756;SDS011;31601;48.042;12.240;2023-05-07T00:13:17;9.97;;;5.40;;
12756;SDS011;31601;48.042;12.240;2023-05-07T00:15:44;6.77;;;5.60;;
12756;SDS011;31601;48.042;12.240;2023-05-07T00:18:12;5.83;;;5.33;;
12756;SDS011;31601;48.042;12.240;2023-05-07T00:20:38;5.80;;;5.27;;
12756;SDS011;31601;48.042;12.240;2023-05-07T00:23:05;5.30;;;4.67;;
12756;SDS011;31601;48.042;12.240;2023-05-07T00:25:31;9.37;;;4.90;;
12756;SDS011;31601;48.042;12.240;2023-05-07T00:27:57;6.50;;;5.30;;
12756;SDS011;31601;48.042;12.240;2023-05-07T00:30:28;5.07;;;4.60;;
12756;SDS011;31601;48.042;12.240;2023-05-07T00:32:55;6.47;;;5.00;;
12756;SDS011;31601;48.042;12.240;2023-05-07T00:35:23;7.80;;;5.73;;
12756;SDS011;31601;48.042;12.240;2023-05-07T00:37:49;6.70;;;6.00;;
12756;SDS011;31601;48.042;12.240;2023-05-07T00:40:15;7.97;;;5.80;;
12756;SDS011;31601;48.042;12.240;2023-05-07T00:42:42;7.00;;;6.30;;
12756;SDS011;31601;48.042;12.240;2023-05-07T00:45:12;7.70;;;6.37;;
12756;SDS011;31601;48.042;12.240;2023-05-07T00:47:38;6.70;;;6.00;;
12756;SDS011;31601;48.042;12.240;2023-05-07T00:50:06;6.27;;;5.43;;
12756;SDS011;31601;48.042;12.240;2023-05-07T00:52:36;7.53;;;5.70;;
12756;SDS011;31601;48.042;12.240;2023-05-07T00:55:04;6.83;;;5.63;;
12756;SDS011;31601;48.042;12.240;2023-05-07T00:57:32;7.23;;;5.57;;
12756;SDS011;31601;48.042;12.240;2023-05-07T01:00:00;6.67;;;6.00;;
12756;SDS011;31601;48.042;12.240;2023-05-07T01:02:27;7.97;;;5.53;;
12756;SDS011;31601;48.042;12.240;2023-05-07T01:04:54;10.03;;;5.47;;
12756;SDS011;31601;48.042;12.240;2023-05-07T01:07:21;6.63;;;5.80;;
12756;SDS011;31601;48.042;12.240;2023-05-07T01:09:50;5.63;;;5.13;;
12756;SDS011;31601;48.042;12.240;2023-05-07T01:12:16;7.20;;;5.93;;
12756;SDS011;31601;48.042;12.240;2023-05-07T01:14:43;7.40;;;6.50;;
12756;SDS011;31601;48.042;12.240;2023-05-07T01:17:09;6.13;;;5.53;;
12756;SDS011;31601;48.042;12.240;2023-05-07T01:19:36;7.33;;;6.30;;
12756;SDS011;31601;48.042;12.240;2023-05-07T01:22:03;7.40;;;6.77;;
12756;SDS011;31601;48.042;12.240;2023-05-07T01:24:35;8.13;;;7.33;;
12756;SDS011;31601;48.042;12.240;2023-05-07T01:27:02;7.57;;;6.70;;
12756;SDS011;31601;48.042;12.240;2023-05-07T01:29:29;7.87;;;7.07;;
12756;SDS011;31601;48.042;12.240;2023-05-07T01:31:56;7.40;;;6.70;;
12756;SDS011;31601;48.042;12.240;2023-05-07T01:34:24;6.90;;;6.30;;
12756;SDS011;31601;48.042;12.240;2023-05-07T01:36:52;6.23;;;5.37;;
12756;SDS011;31601;48.042;12.240;2023-05-07T01:39:20;6.97;;;5.53;;
12756;SDS011;31601;48.042;12.240;2023-05-07T01:41:49;5.80;;;5.23;;
12756;SDS011;31601;48.042;12.240;2023-05-07T01:44:15;5.67;;;4.40;;
12756;SDS011;31601;48.042;12.240;2023-05-07T01:46:44;6.87;;;5.17;;
12756;SDS011;31601;48.042;12.240;2023-05-07T01:49:11;6.50;;;5.63;;
12756;SDS011;31601;48.042;12.240;2023-05-07T01:51:38;5.00;;;4.60;;
12756;SDS011;31601;48.042;12.240;2023-05-07T01:54:05;6.27;;;4.40;;
12756;SDS011;31601;48.042;12.240;2023-05-07T01:56:33;5.87;;;4.13;;
12756;SDS011;31601;48.042;12.240;2023-05-07T01:59:01;6.37;;;4.50;;
12756;SDS011;31601;48.042;12.240;2023-05-07T02:01:28;4.60;;;4.20;;
12756;SDS011;31601;48.042;12.240;2023-05-07T02:03:54;4.97;;;3.70;;
12756;SDS011;31601;48.042;12.240;2023-05-07T02:06:21;6.50;;;4.50;;
12756;SDS011;31601;48.042;12.240;2023-05-07T02:08:47;4.63;;;4.23;;
12756;SDS011;31601;48.042;12.240;2023-05-07T02:11:14;5.57;;;4.20;;
12756;SDS011;31601;48.042;12.240;2023-05-07T02:13:41;6.60;;;4.43;;
12756;SDS011;31601;48.042;12.240;2023-05-07T02:16:08;5.70;;;4.70;;
12756;SDS011;31601;48.042;12.240;2023-05-07T02:18:35;7.50;;;5.57;;
12756;SDS011;31601;48.042;12.240;2023-05-07T02:21:02;7.90;;;5.77;;
12756;SDS011;31601;48.042;12.240;2023-05-07T02:23:29;5.70;;;4.93;;
12756;SDS011;31601;48.042;12.240;2023-05-07T02:25:55;5.60;;;5.13;;
12756;SDS011;31601;48.042;12.240;2023-05-07T02:28:22;5.77;;;5.27;;
12756;SDS011;31601;48.042;12.240;2023-05-07T02:30:48;10.47;;;5.60;;
12756;SDS011;31601;48.042;12.240;2023-05-07T02:33:16;5.23;;;4.83;;
12756;SDS011;31601;48.042;12.240;2023-05-07T02:35:43;5.50;;;5.00;;
12756;SDS011;31601;48.042;12.240;2023-05-07T02:38:09;5.17;;;4.47;;
12756;SDS011;31601;48.042;12.240;2023-05-07T02:40:36;8.07;;;5.00;;
12756;SDS011;31601;48.042;12.240;2023-05-07T02:43:04;6.00;;;5.40;;
12756;SDS011;31601;48.042;12.240;2023-05-07T02:45:31;5.70;;;5.17;;
12756;SDS011;31601;48.042;12.240;2023-05-07T02:47:57;5.23;;;4.77;;
12756;SDS011;31601;48.042;12.240;2023-05-07T02:50:25;5.20;;;4.77;;
12756;SDS011;31601;48.042;12.240;2023-05-07T02:52:52;5.43;;;4.93;;
12756;SDS011;31601;48.042;12.240;2023-05-07T02:55:18;5.90;;;5.40;;
12756;SDS011;31601;48.042;12.240;2023-05-07T02:57:44;5.80;;;5.07;;
12756;SDS011;31601;48.042;12.240;2023-05-07T03:00:12;5.70;;;5.07;;
12756;SDS011;31601;48.042;12.240;2023-05-07T03:02:39;7.80;;;5.73;;
12756;SDS011;31601;48.042;12.240;2023-05-07T03:05:06;6.13;;;4.77;;
12756;SDS011;31601;48.042;12.240;2023-05-07T03:07:34;6.17;;;5.63;;
12756;SDS011;31601;48.042;12.240;2023-05-07T03:10:00;5.87;;;5.27;;
12756;SDS011;31601;48.042;12.240;2023-05-07T03:12:27;6.33;;;5.27;;
12756;SDS011;31601;48.042;12.240;2023-05-07T03:14:53;5.80;;;5.10;;
12756;SDS011;31601;48.042;12.240;2023-05-07T03:17:20;4.93;;;4.40;;
12756;SDS011;31601;48.042;12.240;2023-05-07T03:19:46;6.13;;;5.10;;
12756;SDS011;31601;48.042;12.240;2023-05-07T03:22:13;6.27;;;5.63;;
12756;SDS011;31601;48.042;12.240;2023-05-07T03:24:41;7.60;;;5.63;;
12756;SDS011;31601;48.042;12.240;2023-05-07T03:27:07;6.40;;;5.80;;
12756;SDS011;31601;48.042;12.240;2023-05-07T03:29:34;6.37;;;5.20;;
12756;SDS011;31601;48.042;12.240;2023-05-07T03:32:00;6.40;;;5.80;;
12756;SDS011;31601;48.042;12.240;2023-05-07T03:34:27;5.70;;;5.13;;
12756;SDS011;31601;48.042;12.240;2023-05-07T03:36:53;4.50;;;4.10;;
12756;SDS011;31601;48.042;12.240;2023-05-07T03:39:19;5.80;;;4.70;;
12756;SDS011;31601;48.042;12.240;2023-05-07T03:41:47;6.20;;;4.87;;
12756;SDS011;31601;48.042;12.240;2023-05-07T03:44:14;4.60;;;4.20;;
12756;SDS011;31601;48.042;12.240;2023-05-07T03:46:40;4.63;;;4.03;;
12756;SDS011;31601;48.042;12.240;2023-05-07T03:49:06;7.50;;;4.90;;
12756;SDS011;31601;48.042;12.240;2023-05-07T03:51:33;6.23;;;5.33;;
12756;SDS011;31601;48.042;12.240;2023-05-07T03:54:01;5.40;;;4.47;;
12756;SDS011;31601;48.042;12.240;2023-05-07T03:56:27;5.53;;;4.90;;
12756;SDS011;31601;48.042;12.240;2023-05-07T03:58:55;6.00;;;5.40;;
12756;SDS011;31601;48.042;12.240;2023-05-07T04:01:21;7.43;;;6.63;;
12756;SDS011;31601;48.042;12.240;2023-05-07T04:03:48;7.23;;;6.53;;
12756;SDS011;31601;48.042;12.240;2023-05-07T04:06:15;8.17;;;6.53;;
12756;SDS011;31601;48.042;12.240;2023-05-07T04:08:42;7.10;;;6.40;;
12756;SDS011;31601;48.042;12.240;2023-05-07T04:11:08;9.70;;;6.17;;
12756;SDS011;31601;48.042;12.240;2023-05-07T04:13:35;8.07;;;5.70;;
12756;SDS011;31601;48.042;12.240;2023-05-07T04:16:03;8.87;;;5.73;;
12756;SDS011;31601;48.042;12.240;2023-05-07T04:18:31;8.73;;;6.13;;
12756;SDS011;31601;48.042;12.240;2023-05-07T04:20:57;6.00;;;5.50;;
12756;SDS011;31601;48.042;12.240;2023-05-07T04:23:24;8.13;;;5.00;;
12756;SDS011;31601;48.042;12.240;2023-05-07T04:25:50;6.17;;;4.90;;
12756;SDS011;31601;48.042;12.240;2023-05-07T04:28:17;5.50;;;5.00;;
12756;SDS011;31601;48.042;12.240;2023-05-07T04:30:43;5.27;;;4.53;;
12756;SDS011;31601;48.042;12.240;2023-05-07T04:33:11;4.87;;;4.47;;
12756;SDS011;31601;48.042;12.240;2023-05-07T04:35:38;7.63;;;5.00;;
12756;SDS011;31601;48.042;12.240;2023-05-07T04:38:04;5.50;;;5.00;;
12756;SDS011;31601;48.042;12.240;2023-05-07T04:40:31;7.13;;;4.97;;
12756;SDS011;31601;48.042;12.240;2023-05-07T04:42:59;5.57;;;5.07;;
12756;SDS011;31601;48.042;12.240;2023-05-07T04:45:26;6.90;;;6.30;;
12756;SDS011;31601;48.042;12.240;2023-05-07T04:47:52;5.90;;;5.40;;
12756;SDS011;31601;48.042;12.240;2023-05-07T04:50:20;6.40;;;5.80;;
12756;SDS011;31601;48.042;12.240;2023-05-07T04:52:49;5.73;;;5.10;;
12756;SDS011;31601;48.042;12.240;2023-05-07T04:55:15;6.17;;;5.67;;
12756;SDS011;31601;48.042;12.240;2023-05-07T04:57:42;7.40;;;5.73;;
12756;SDS011;31601;48.042;12.240;2023-05-07T05:00:09;6.20;;;5.60;;
12756;SDS011;31601;48.042;12.240;2023-05-07T05:02:36;7.27;;;5.63;;
12756;SDS011;31601;48.042;12.240;2023-05-07T05:05:03;7.33;;;6.60;;
12756;SDS011;31601;48.042;12.240;2023-05-07T05:07:31;9.93;;;6.20;;
12756;SDS011;31601;48.042;12.240;2023-05-07T05:09:57;7.27;;;6.67;;
12756;SDS011;31601;48.042;12.240;2023-05-07T05:12:24;7.80;;;6.80;;
12756;SDS011;31601;48.042;12.240;2023-05-07T05:14:50;7.93;;;7.23;;
12756;SDS011;31601;48.042;12.240;2023-05-07T05:17:17;7.30;;;6.47;;
12756;SDS011;31601;48.042;12.240;2023-05-07T05:19:43;7.23;;;6.10;;
12756;SDS011;31601;48.042;12.240;2023-05-07T05:22:10;7.70;;;6.17;;
12756;SDS011;31601;48.042;12.240;2023-05-07T05:24:37;6.87;;;6.27;;
12756;SDS011;31601;48.042;12.240;2023-05-07T05:27:04;13.37;;;6.73;;
12756;SDS011;31601;48.042;12.240;2023-05-07T05:29:31;7.73;;;7.00;;
12756;SDS011;31601;48.042;12.240;2023-05-07T05:31:57;7.57;;;6.60;;
12756;SDS011;31601;48.042;12.240;2023-05-07T05:34:24;9.60;;;6.60;;
12756;SDS011;31601;48.042;12.240;2023-05-07T05:36:50;7.20;;;6.50;;
12756;SDS011;31601;48.042;12.240;2023-05-07T05:39:17;8.70;;;6.23;;
12756;SDS011;31601;48.042;12.240;2023-05-07T05:41:45;6.37;;;5.77;;
12756;SDS011;31601;48.042;12.240;2023-05-07T05:44:12;7.17;;;6.30;;
12756;SDS011;31601;48.042;12.240;2023-05-07T05:46:38;8.10;;;6.20;;
12756;SDS011;31601;48.042;12.240;2023-05-07T05:49:04;6.47;;;5.87;;
12756;SDS011;31601;48.042;12.240;2023-05-07T05:51:31;7.27;;;6.67;;
12756;SDS011;31601;48.042;12.240;2023-05-07T05:53:58;9.03;;;6.50;;
12756;SDS011;31601;48.042;12.240;2023-05-07T05:56:24;8.30;;;7.07;;
12756;SDS011;31601;48.042;12.240;2023-05-07T05:58:52;7.27;;;6.57;;
12756;SDS011;31601;48.042;12.240;2023-05-07T06:01:19;6.73;;;6.13;;
12756;SDS011;31601;48.042;12.240;2023-05-07T06:03:45;8.23;;;7.43;;
12756;SDS011;31601;48.042;12.240;2023-05-07T06:06:12;7.77;;;6.77;;
12756;SDS011;31601;48.042;12.240;2023-05-07T06:08:39;7.60;;;6.77;;
12756;SDS011;31601;48.042;12.240;2023-05-07T06:11:06;8.77;;;7.50;;
12756;SDS011;31601;48.042;12.240;2023-05-07T06:13:32;10.27;;;8.33;;
12756;SDS011;31601;48.042;12.240;2023-05-07T06:16:00;7.40;;;6.70;;
12756;SDS011;31601;48.042;12.240;2023-05-07T06:18:27;7.80;;;7.10;;
12756;SDS011;31601;48.042;12.240;2023-05-07T06:20:53;8.17;;;7.37;;
12756;SDS011;31601;48.042;12.240;2023-05-07T06:23:19;8.80;;;7.20;;
12756;SDS011;31601;48.042;12.240;2023-05-07T06:25:47;9.80;;;7.07;;
12756;SDS011;31601;48.042;12.240;2023-05-07T06:28:14;7.97;;;7.03;;
12756;SDS011;31601;48.042;12.240;2023-05-07T06:30:40;8.43;;;7.50;;
12756;SDS011;31601;48.042;12.240;2023-05-07T06:33:08;8.27;;;6.70;;
12756;SDS011;31601;48.042;12.240;2023-05-07T06:35:35;8.33;;;7.20;;
12756;SDS011;31601;48.042;12.240;2023-05-07T06:38:01;7.27;;;6.63;;
12756;SDS011;31601;48.042;12.240;2023-05-07T06:40:27;7.13;;;6.43;;
12756;SDS011;31601;48.042;12.240;2023-05-07T06:42:54;6.20;;;5.60;;
12756;SDS011;31601;48.042;12.240;2023-05-07T06:45:20;7.60;;;5.60;;
12756;SDS011;31601;48.042;12.240;2023-05-07T06:47:47;5.77;;;5.17;;
12756;SDS011;31601;48.042;12.240;2023-05-07T06:50:15;6.20;;;5.20;;
12756;SDS011;31601;48.042;12.240;2023-05-07T06:52:42;4.80;;;4.30;;
12756;SDS011;31601;48.042;12.240;2023-05-07T06:55:08;5.70;;;4.67;;
12756;SDS011;31601;48.042;12.240;2023-05-07T06:57:36;7.97;;;4.73;;
12756;SDS011;31601;48.042;12.240;2023-05-07T07:00:02;5.97;;;4.70;;
12756;SDS011;31601;48.042;12.240;2023-05-07T07:02:32;6.47;;;4.33;;
12756;SDS011;31601;48.042;12.240;2023-05-07T07:04:58;5.17;;;4.50;;
12756;SDS011;31601;48.042;12.240;2023-05-07T07:07:26;4.87;;;4.47;;
12756;SDS011;31601;48.042;12.240;2023-05-07T07:09:52;5.53;;;4.40;;
12756;SDS011;31601;48.042;12.240;2023-05-07T07:12:19;6.03;;;4.73;;
12756;SDS011;31601;48.042;12.240;2023-05-07T07:14:45;5.43;;;4.57;;
12756;SDS011;31601;48.042;12.240;2023-05-07T07:17:11;6.67;;;4.53;;
12756;SDS011;31601;48.042;12.240;2023-05-07T07:19:38;5.00;;;4.20;;
12756;SDS011;31601;48.042;12.240;2023-05-07T07:22:04;5.10;;;4.00;;
12756;SDS011;31601;48.042;12.240;2023-05-07T07:24:32;4.70;;;4.25;;
12756;SDS011;31601;48.042;12.240;2023-05-07T07:26:58;5.07;;;4.68;;
12756;SDS011;31601;48.042;12.240;2023-05-07T07:29:25;5.80;;;4.13;;
12756;SDS011;31601;48.042;12.240;2023-05-07T07:31:52;7.32;;;4.40;;
12756;SDS011;31601;48.042;12.240;2023-05-07T07:34:18;4.82;;;4.32;;
12756;SDS011;31601;48.042;12.240;2023-05-07T07:36:44;7.75;;;4.25;;
12756;SDS011;31601;48.042;12.240;2023-05-07T07:39:11;4.90;;;3.95;;
12756;SDS011;31601;48.042;12.240;2023-05-07T07:41:39;5.32;;;4.00;;
12756;SDS011;31601;48.042;12.240;2023-05-07T07:44:05;4.32;;;3.92;;
12756;SDS011;31601;48.042;12.240;2023-05-07T07:46:32;4.35;;;3.95;;
12756;SDS011;31601;48.042;12.240;2023-05-07T07:48:59;3.72;;;3.22;;
12756;SDS011;31601;48.042;12.240;2023-05-07T07:51:25;5.32;;;3.85;;
12756;SDS011;31601;48.042;12.240;2023-05-07T07:53:52;3.75;;;3.45;;
12756;SDS011;31601;48.042;12.240;2023-05-07T07:56:18;4.53;;;2.92;;
12756;SDS011;31601;48.042;12.240;2023-05-07T07:58:47;3.13;;;2.78;;
12756;SDS011;31601;48.042;12.240;2023-05-07T08:01:13;3.00;;;2.70;;
12756;SDS011;31601;48.042;12.240;2023-05-07T08:03:39;3.63;;;2.90;;
12756;SDS011;31601;48.042;12.240;2023-05-07T08:06:06;3.75;;;3.05;;
12756;SDS011;31601;48.042;12.240;2023-05-07T08:08:32;4.63;;;2.42;;
12756;SDS011;31601;48.042;12.240;2023-05-07T08:10:59;4.78;;;3.00;;
12756;SDS011;31601;48.042;12.240;2023-05-07T08:13:25;3.72;;;2.80;;
12756;SDS011;31601;48.042;12.240;2023-05-07T08:15:53;3.40;;;2.85;;
12756;SDS011;31601;48.042;12.240;2023-05-07T08:18:20;3.83;;;2.60;;
12756;SDS011;31601;48.042;12.240;2023-05-07T08:20:48;2.97;;;2.50;;
12756;SDS011;31601;48.042;12.240;2023-05-07T08:23:14;3.30;;;2.30;;
12756;SDS011;31601;48.042;12.240;2023-05-07T08:25:41;4.68;;;2.42;;
12756;SDS011;31601;48.042;12.240;2023-05-07T08:28:07;2.97;;;2.50;;
12756;SDS011;31601;48.042;12.240;2023-05-07T08:30:34;3.03;;;2.58;;
12756;SDS011;31601;48.042;12.240;2023-05-07T08:33:02;3.55;;;2.60;;
12756;SDS011;31601;48.042;12.240;2023-05-07T08:35:28;6.63;;;2.17;;
12756;SDS011;31601;48.042;12.240;2023-05-07T08:37:55;3.67;;;2.67;;
12756;SDS011;31601;48.042;12.240;2023-05-07T08:40:21;3.53;;;2.70;;
12756;SDS011;31601;48.042;12.240;2023-05-07T08:42:52;3.28;;;2.47;;
12756;SDS011;31601;48.042;12.240;2023-05-07T08:45:19;3.35;;;2.70;;
12756;SDS011;31601;48.042;12.240;2023-05-07T08:47:46;2.92;;;2.53;;
12756;SDS011;31601;48.042;12.240;2023-05-07T08:50:17;2.72;;;2.40;;
12756;SDS011;31601;48.042;12.240;2023-05-07T08:52:46;3.70;;;3.30;;
12756;SDS011;31601;48.042;12.240;2023-05-07T08:55:13;3.40;;;2.60;;
12756;SDS011;31601;48.042;12.240;2023-05-07T08:57:40;6.38;;;2.80;;
12756;SDS011;31601;48.042;12.240;2023-05-07T09:00:07;4.00;;;2.15;;
12756;SDS011;31601;48.042;12.240;2023-05-07T09:02:35;4.47;;;2.38;;
12756;SDS011;31601;48.042;12.240;2023-05-07T09:05:01;3.05;;;2.65;;
12756;SDS011;31601;48.042;12.240;2023-05-07T09:07:29;3.92;;;2.42;;
12756;SDS011;31601;48.042;12.240;2023-05-07T09:09:56;5.63;;;2.70;;
12756;SDS011;31601;48.042;12.240;2023-05-07T09:12:23;4.07;;;2.25;;
12756;SDS011;31601;48.042;12.240;2023-05-07T09:14:49;3.00;;;2.60;;
12756;SDS011;31601;48.042;12.240;2023-05-07T09:17:16;2.40;;;2.03;;
12756;SDS011;31601;48.042;12.240;2023-05-07T09:19:43;5.85;;;2.45;;
12756;SDS011;31601;48.042;12.240;2023-05-07T09:22:10;3.25;;;2.20;;
12756;SDS011;31601;48.042;12.240;2023-05-07T09:24:38;2.53;;;1.98;;
12756;SDS011;31601;48.042;12.240;2023-05-07T09:27:05;2.58;;;2.17;;
12756;SDS011;31601;48.042;12.240;2023-05-07T09:29:33;4.10;;;2.42;;
12756;SDS011;31601;48.042;12.240;2023-05-07T09:32:00;3.67;;;1.75;;
12756;SDS011;31601;48.042;12.240;2023-05-07T09:34:27;1.70;;;1.60;;
12756;SDS011;31601;48.042;12.240;2023-05-07T09:36:53;4.80;;;2.38;;
12756;SDS011;31601;48.042;12.240;2023-05-07T09:39:20;4.43;;;2.30;;
12756;SDS011;31601;48.042;12.240;2023-05-07T09:41:47;2.72;;;2.35;;
12756;SDS011;31601;48.042;12.240;2023-05-07T09:44:16;4.90;;;2.50;;
12756;SDS011;31601;48.042;12.240;2023-05-07T09:46:43;2.80;;;2.60;;
12756;SDS011;31601;48.042;12.240;2023-05-07T09:49:11;4.47;;;2.60;;
12756;SDS011;31601;48.042;12.240;2023-05-07T09:51:43;2.20;;;2.00;;
12756;SDS011;31601;48.042;12.240;2023-05-07T09:54:14;3.53;;;1.90;;
12756;SDS011;31601;48.042;12.240;2023-05-07T09:56:40;3.30;;;2.00;;
12756;SDS011;31601;48.042;12.240;2023-05-07T09:59:10;4.65;;;2.10;;
12756;SDS011;31601;48.042;12.240;2023-05-07T10:01:39;3.17;;;2.00;;
12756;SDS011;31601;48.042;12.240;2023-05-07T10:04:07;2.92;;;2.35;;
12756;SDS011;31601;48.042;12.240;2023-05-07T10:06:34;3.47;;;2.20;;
12756;SDS011;31601;48.042;12.240;2023-05-07T10:09:01;3.38;;;2.33;;
12756;SDS011;31601;48.042;12.240;2023-05-07T10:11:30;6.68;;;2.08;;
12756;SDS011;31601;48.042;12.240;2023-05-07T10:13:58;3.83;;;2.20;;
12756;SDS011;31601;48.042;12.240;2023-05-07T10:16:28;4.35;;;1.98;;
12756;SDS011;31601;48.042;12.240;2023-05-07T10:18:57;2.58;;;1.80;;
12756;SDS011;31601;48.042;12.240;2023-05-07T10:21:24;4.70;;;2.30;;
12756;SDS011;31601;48.042;12.240;2023-05-07T10:23:53;4.15;;;1.92;;
12756;SDS011;31601;48.042;12.240;2023-05-07T10:26:24;3.83;;;1.88;;
12756;SDS011;31601;48.042;12.240;2023-05-07T10:28:54;2.83;;;1.60;;
12756;SDS011;31601;48.042;12.240;2023-05-07T10:31:35;3.42;;;1.40;;
12756;SDS011;31601;48.042;12.240;2023-05-07T10:34:11;2.65;;;1.60;;
12756;SDS011;31601;48.042;12.240;2023-05-07T10:36:42;2.72;;;2.28;;
12756;SDS011;31601;48.042;12.240;2023-05-07T10:39:09;2.47;;;1.92;;
12756;SDS011;31601;48.042;12.240;2023-05-07T10:41:36;4.88;;;2.22;;
12756;SDS011;31601;48.042;12.240;2023-05-07T10:44:03;2.72;;;1.88;;
12756;SDS011;31601;48.042;12.240;2023-05-07T10:46:29;3.13;;;2.05;;
12756;SDS011;31601;48.042;12.240;2023-05-07T10:49:07;5.05;;;2.00;;
12756;SDS011;31601;48.042;12.240;2023-05-07T10:51:41;2.25;;;2.05;;
12756;SDS011;31601;48.042;12.240;2023-05-07T10:54:20;5.60;;;2.20;;
12756;SDS011;31601;48.042;12.240;2023-05-07T10:56:48;2.63;;;2.42;;
12756;SDS011;31601;48.042;12.240;2023-05-07T10:59:34;2.95;;;2.30;;
12756;SDS011;31601;48.042;12.240;2023-05-07T11:02:06;2.90;;;2.08;;
12756;SDS011;31601;48.042;12.240;2023-05-07T11:04:37;4.20;;;2.20;;
12756;SDS011;31601;48.042;12.240;2023-05-07T11:09:57;3.92;;;2.20;;
12756;SDS011;31601;48.042;12.240;2023-05-07T11:15:34;1.95;;;1.85;;
12756;SDS011;31601;48.042;12.240;2023-05-07T11:18:02;4.40;;;2.50;;
12756;SDS011;31601;48.042;12.240;2023-05-07T11:26:16;4.20;;;2.17;;
12756;SDS011;31601;48.042;12.240;2023-05-07T11:28:43;2.50;;;2.22;;
12756;SDS011;31601;48.042;12.240;2023-05-07T11:31:10;2.78;;;2.17;;
12756;SDS011;31601;48.042;12.240;2023-05-07T11:33:37;2.70;;;2.13;;
12756;SDS011;31601;48.042;12.240;2023-05-07T11:36:07;2.20;;;2.00;;
12756;SDS011;31601;48.042;12.240;2023-05-07T11:38:34;6.07;;;2.40;;
12756;SDS011;31601;48.042;12.240;2023-05-07T11:41:04;2.85;;;1.80;;
12756;SDS011;31601;48.042;12.240;2023-05-07T11:43:31;2.95;;;2.00;;
12756;SDS011;31601;48.042;12.240;2023-05-07T11:46:05;2.53;;;2.00;;
12756;SDS011;31601;48.042;12.240;2023-05-07T11:48:32;3.53;;;2.15;;
12756;SDS011;31601;48.042;12.240;2023-05-07T11:51:00;3.38;;;2.20;;
12756;SDS011;31601;48.042;12.240;2023-05-07T11:53:34;4.30;;;2.40;;
12756;SDS011;31601;48.042;12.240;2023-05-07T11:56:05;2.78;;;2.42;;
12756;SDS011;31601;48.042;12.240;2023-05-07T11:58:32;3.45;;;2.50;;
12756;SDS011;31601;48.042;12.240;2023-05-07T12:00:59;4.55;;;2.40;;
12756;SDS011;31601;48.042;12.240;2023-05-07T12:03:26;2.53;;;2.33;;
12756;SDS011;31601;48.042;12.240;2023-05-07T12:05:52;3.40;;;2.15;;
12756;SDS011;31601;48.042;12.240;2023-05-07T12:08:20;2.33;;;2.03;;
12756;SDS011;31601;48.042;12.240;2023-05-07T12:10:49;7.78;;;2.88;;
12756;SDS011;31601;48.042;12.240;2023-05-07T12:13:16;2.80;;;2.20;;
12756;SDS011;31601;48.042;12.240;2023-05-07T12:15:43;5.35;;;2.50;;
12756;SDS011;31601;48.042;12.240;2023-05-07T12:18:10;5.20;;;2.45;;
12756;SDS011;31601;48.042;12.240;2023-05-07T12:20:37;3.70;;;2.40;;
12756;SDS011;31601;48.042;12.240;2023-05-07T12:23:04;5.07;;;2.28;;
12756;SDS011;31601;48.042;12.240;2023-05-07T12:25:31;3.78;;;2.30;;
12756;SDS011;31601;48.042;12.240;2023-05-07T12:28:01;3.97;;;2.08;;
12756;SDS011;31601;48.042;12.240;2023-05-07T12:30:28;3.50;;;2.30;;
12756;SDS011;31601;48.042;12.240;2023-05-07T12:32:55;2.20;;;2.00;;
12756;SDS011;31601;48.042;12.240;2023-05-07T12:35:27;2.92;;;1.98;;
12756;SDS011;31601;48.042;12.240;2023-05-07T12:37:54;4.13;;;2.00;;
12756;SDS011;31601;48.042;12.240;2023-05-07T12:40:21;2.67;;;1.85;;
12756;SDS011;31601;48.042;12.240;2023-05-07T12:42:48;3.55;;;2.20;;
12756;SDS011;31601;48.042;12.240;2023-05-07T12:45:21;3.03;;;2.47;;
12756;SDS011;31601;48.042;12.240;2023-05-07T12:47:48;2.28;;;1.42;;
12756;SDS011;31601;48.042;12.240;2023-05-07T12:50:15;2.85;;;2.00;;
12756;SDS011;31601;48.042;12.240;2023-05-07T12:52:42;3.20;;;1.60;;
12756;SDS011;31601;48.042;12.240;2023-05-07T12:55:11;7.10;;;1.85;;
12756;SDS011;31601;48.042;12.240;2023-05-07T12:57:41;2.13;;;1.77;;
12756;SDS011;31601;48.042;12.240;2023-05-07T13:00:09;3.45;;;1.60;;
12756;SDS011;31601;48.042;12.240;2023-05-07T13:02:38;2.05;;;1.80;;
12756;SDS011;31601;48.042;12.240;2023-05-07T13:05:06;2.50;;;1.60;;
12756;SDS011;31601;48.042;12.240;2023-05-07T13:07:33;2.20;;;1.90;;
12756;SDS011;31601;48.042;12.240;2023-05-07T13:10:00;3.58;;;1.52;;
12756;SDS011;31601;48.042;12.240;2023-05-07T13:12:27;1.92;;;1.73;;
12756;SDS011;31601;48.042;12.240;2023-05-07T13:14:54;4.47;;;1.70;;
12756;SDS011;31601;48.042;12.240;2023-05-07T13:17:20;3.80;;;1.70;;
12756;SDS011;31601;48.042;12.240;2023-05-07T13:19:48;1.73;;;1.63;;
12756;SDS011;31601;48.042;12.240;2023-05-07T13:22:15;3.80;;;1.50;;
12756;SDS011;31601;48.042;12.240;2023-05-07T13:24:41;3.83;;;1.60;;
12756;SDS011;31601;48.042;12.240;2023-05-07T13:27:08;2.67;;;1.65;;
12756;SDS011;31601;48.042;12.240;2023-05-07T13:29:35;1.98;;;1.60;;
12756;SDS011;31601;48.042;12.240;2023-05-07T13:32:01;2.10;;;1.40;;
12756;SDS011;31601;48.042;12.240;2023-05-07T13:34:28;4.60;;;1.55;;
12756;SDS011;31601;48.042;12.240;2023-05-07T13:36:55;1.45;;;1.35;;
12756;SDS011;31601;48.042;12.240;2023-05-07T13:39:22;1.65;;;1.30;;
12756;SDS011;31601;48.042;12.240;2023-05-07T13:41:48;2.67;;;1.38;;
12756;SDS011;31601;48.042;12.240;2023-05-07T13:44:15;2.40;;;1.30;;
12756;SDS011;31601;48.042;12.240;2023-05-07T13:46:41;2.25;;;1.25;;
12756;SDS011;31601;48.042;12.240;2023-05-07T13:49:08;2.83;;;1.30;;
12756;SDS011;31601;48.042;12.240;2023-05-07T13:51:36;2.17;;;1.30;;
12756;SDS011;31601;48.042;12.240;2023-05-07T13:54:04;2.08;;;1.20;;
12756;SDS011;31601;48.042;12.240;2023-05-07T13:56:30;1.77;;;1.20;;
12756;SDS011;31601;48.042;12.240;2023-05-07T13:58:57;2.90;;;1.30;;
12756;SDS011;31601;48.042;12.240;2023-05-07T14:01:23;2.08;;;1.20;;
12756;SDS011;31601;48.042;12.240;2023-05-07T14:03:50;3.72;;;1.13;;
12756;SDS011;31601;48.042;12.240;2023-05-07T14:06:16;1.60;;;1.15;;
12756;SDS011;31601;48.042;12.240;2023-05-07T14:08:43;1.98;;;1.00;;
12756;SDS011;31601;48.042;12.240;2023-05-07T14:11:10;1.60;;;1.40;;
12756;SDS011;31601;48.042;12.240;2023-05-07T14:13:37;1.67;;;1.38;;
12756;SDS011;31601;48.042;12.240;2023-05-07T14:16:04;4.07;;;1.30;;
12756;SDS011;31601;48.042;12.240;2023-05-07T14:18:30;2.95;;;1.10;;
12756;SDS011;31601;48.042;12.240;2023-05-07T14:20:58;3.35;;;1.10;;
12756;SDS011;31601;48.042;12.240;2023-05-07T14:23:25;2.05;;;1.40;;
12756;SDS011;31601;48.042;12.240;2023-05-07T14:25:52;3.25;;;1.27;;
12756;SDS011;31601;48.042;12.240;2023-05-07T14:28:20;1.75;;;1.20;;
12756;SDS011;31601;48.042;12.240;2023-05-07T14:30:46;2.00;;;1.25;;
12756;SDS011;31601;48.042;12.240;2023-05-07T14:33:13;1.60;;;1.50;;
12756;SDS011;31601;48.042;12.240;2023-05-07T14:35:39;3.38;;;1.30;;
12756;SDS011;31601;48.042;12.240;2023-05-07T14:38:06;2.08;;;1.23;;
12756;SDS011;31601;48.042;12.240;2023-05-07T14:40:32;2.75;;;1.48;;
12756;SDS011;31601;48.042;12.240;2023-05-07T14:42:59;2.53;;;1.20;;
12756;SDS011;31601;48.042;12.240;2023-05-07T14:45:26;2.25;;;1.35;;